Time;durP1;ratioP1;P1;durP2;ratioP2;P2;SDS_P1;SDS_P2;PMS_P1;PMS_P2;Temp;Humidity;BMP_temperature;BMP_pressure;BME280_temperature;BME280_humidity;BME280_pressure;Samples;Min_cycle;Max_cycle;Signal;HPM_P1;HPM_P2
2021/04/16 00:00:33;;;;;;;3.72;2.00;;;9.90;96.70;;;;;;4972361;28;20049;-76
2021/04/16 00:03:01;;;;;;;2.75;2.10;;;9.90;96.70;;;;;;4957036;28;20038;-76
2021/04/16 00:05:28;;;;;;;5.13;2.00;;;9.90;96.60;;;;;;4962322;28;20499;-76
2021/04/16 00:07:56;;;;;;;3.30;1.98;;;9.90;96.40;;;;;;4946714;28;20057;-75
2021/04/16 00:10:29;;;;;;;2.47;1.77;;;10.00;96.10;;;;;;4958922;28;20046;-76
2021/04/16 00:12:57;;;;;;;2.95;1.65;;;9.90;96.00;;;;;;4948139;28;20054;-76
2021/04/16 00:15:27;;;;;;;3.78;2.20;;;9.90;96.00;;;;;;4959329;28;20065;-76
2021/04/16 00:17:54;;;;;;;3.38;1.70;;;9.90;96.10;;;;;;4961402;28;20065;-76
2021/04/16 00:20:25;;;;;;;2.95;1.80;;;9.90;96.30;;;;;;4951990;28;20047;-75
2021/04/16 00:22:52;;;;;;;3.25;1.55;;;9.90;96.20;;;;;;4962905;28;20066;-76
2021/04/16 00:25:23;;;;;;;2.22;1.40;;;9.80;96.00;;;;;;4943214;28;20058;-75
2021/04/16 00:27:52;;;;;;;2.38;1.20;;;9.70;96.50;;;;;;4973535;28;20042;-76
2021/04/16 00:30:23;;;;;;;2.35;1.40;;;9.70;96.70;;;;;;4954618;28;20074;-76
2021/04/16 00:32:51;;;;;;;2.70;1.50;;;9.80;96.70;;;;;;4972385;28;20038;-75
2021/04/16 00:35:19;;;;;;;1.80;1.50;;;9.80;96.70;;;;;;4966297;28;20506;-76
2021/04/16 00:37:46;;;;;;;2.05;1.30;;;9.80;96.70;;;;;;4962090;28;20047;-75
2021/04/16 00:40:17;;;;;;;2.33;1.50;;;9.80;96.70;;;;;;4973683;28;20053;-76
2021/04/16 00:42:53;;;;;;;2.38;1.60;;;9.70;96.70;;;;;;4996926;28;20065;-75
2021/04/16 00:45:21;;;;;;;4.57;1.60;;;9.80;96.70;;;;;;4974600;28;20049;-76
2021/04/16 00:47:50;;;;;;;1.98;1.40;;;9.70;96.70;;;;;;5000397;28;20435;-76
2021/04/16 00:50:20;;;;;;;1.60;1.40;;;9.70;96.70;;;;;;4966058;28;20411;-76
2021/04/16 00:52:49;;;;;;;2.72;1.77;;;9.70;96.70;;;;;;4984526;28;20044;-76
2021/04/16 00:55:17;;;;;;;2.72;1.58;;;9.60;96.70;;;;;;4985710;28;20407;-75
2021/04/16 00:57:45;;;;;;;5.68;3.00;;;9.60;96.70;;;;;;4981988;28;20046;-76
2021/04/16 01:00:15;;;;;;;4.47;2.25;;;9.50;96.70;;;;;;4977068;28;20050;-75
2021/04/16 01:02:43;;;;;;;3.08;2.25;;;9.50;96.70;;;;;;4981551;28;20451;-76
2021/04/16 01:05:12;;;;;;;7.05;2.08;;;9.50;96.70;;;;;;5005038;28;20046;-76
2021/04/16 01:07:40;;;;;;;2.83;1.83;;;9.50;96.70;;;;;;5000277;28;20038;-76
2021/04/16 01:10:09;;;;;;;2.35;1.65;;;9.50;96.70;;;;;;5000412;28;20042;-76
2021/04/16 01:12:36;;;;;;;2.75;1.80;;;9.60;96.70;;;;;;5006693;28;20049;-76
2021/04/16 01:15:16;;;;;;;2.63;1.55;;;9.60;96.70;;;;;;4985813;28;20030;-75
2021/04/16 01:17:46;;;;;;;4.47;1.73;;;9.60;96.70;;;;;;4982511;28;20041;-76
2021/04/16 01:20:18;;;;;;;1.92;1.35;;;9.50;96.70;;;;;;4985826;28;20041;-75
2021/04/16 01:22:54;;;;;;;3.05;1.70;;;9.50;96.70;;;;;;4986262;28;20057;-76
2021/04/16 01:25:25;;;;;;;2.78;1.95;;;9.50;96.70;;;;;;4985317;28;20029;-76
2021/04/16 01:27:54;;;;;;;2.33;1.80;;;9.50;96.70;;;;;;4986903;28;20042;-75
2021/04/16 01:30:25;;;;;;;2.67;1.85;;;9.50;96.70;;;;;;4976456;28;20038;-75
2021/04/16 01:32:53;;;;;;;3.17;1.95;;;9.50;96.70;;;;;;4984380;28;20038;-76
2021/04/16 01:35:26;;;;;;;2.95;2.00;;;9.50;96.70;;;;;;5000229;28;20060;-76
2021/04/16 01:37:53;;;;;;;2.80;1.90;;;9.60;96.70;;;;;;5000843;28;20060;-76
2021/04/16 01:40:23;;;;;;;2.53;2.00;;;9.50;96.70;;;;;;4983876;28;20041;-76
2021/04/16 01:42:51;;;;;;;2.63;1.40;;;9.60;96.70;;;;;;4991520;28;20137;-76
2021/04/16 01:45:21;;;;;;;2.33;1.80;;;9.60;96.70;;;;;;5001836;28;20060;-76
2021/04/16 01:47:53;;;;;;;3.65;1.77;;;9.60;96.70;;;;;;4982519;28;20057;-76
2021/04/16 01:50:22;;;;;;;2.33;1.80;;;9.50;96.70;;;;;;4962704;28;20526;-75
2021/04/16 01:52:49;;;;;;;3.22;1.45;;;9.50;96.70;;;;;;5004056;28;20034;-76
2021/04/16 01:55:17;;;;;;;3.42;1.85;;;9.50;96.70;;;;;;4998390;28;20199;-75
2021/04/16 01:57:47;;;;;;;2.20;1.45;;;9.30;96.70;;;;;;4982240;28;20035;-76
2021/04/16 02:00:17;;;;;;;2.83;1.80;;;9.30;96.70;;;;;;4982410;28;20597;-76
2021/04/16 02:02:45;;;;;;;2.95;1.70;;;9.40;96.70;;;;;;5002081;28;20121;-75
2021/04/16 02:05:13;;;;;;;2.85;1.70;;;9.40;96.70;;;;;;4983077;28;20050;-75
2021/04/16 02:07:42;;;;;;;2.15;1.58;;;9.40;96.70;;;;;;5001326;28;20047;-75
2021/04/16 02:10:13;;;;;;;2.38;1.60;;;9.30;96.70;;;;;;4970088;28;20114;-74
2021/04/16 02:12:42;;;;;;;2.05;1.60;;;9.30;96.70;;;;;;4991448;28;20060;-74
2021/04/16 02:15:12;;;;;;;2.65;1.75;;;9.20;96.70;;;;;;4987933;28;20042;-74
2021/04/16 02:17:40;;;;;;;3.42;1.75;;;9.20;96.70;;;;;;4999673;28;20034;-74
2021/04/16 02:20:12;;;;;;;2.95;1.70;;;9.10;96.70;;;;;;4967377;28;20065;-73
2021/04/16 02:22:40;;;;;;;2.55;1.90;;;9.10;96.70;;;;;;4986989;28;20473;-73
2021/04/16 02:25:10;;;;;;;2.13;1.65;;;9.00;96.70;;;;;;4968982;28;20060;-74
2021/04/16 02:27:38;;;;;;;4.60;1.90;;;8.90;96.70;;;;;;4978289;28;20069;-73
2021/04/16 02:30:08;;;;;;;2.78;1.80;;;8.90;96.70;;;;;;4983189;28;20046;-74
2021/04/16 02:32:37;;;;;;;3.15;2.05;;;8.90;96.70;;;;;;4968910;28;20057;-74
2021/04/16 02:35:08;;;;;;;4.97;3.20;;;8.90;96.70;;;;;;4997494;28;20046;-74
2021/04/16 02:37:36;;;;;;;3.53;2.67;;;8.80;96.70;;;;;;4979853;28;20344;-74
2021/04/16 02:40:05;;;;;;;3.83;2.50;;;8.80;96.70;;;;;;4985684;28;20275;-73
2021/04/16 02:42:33;;;;;;;3.08;2.15;;;8.80;96.70;;;;;;4975882;28;20054;-74
2021/04/16 02:45:03;;;;;;;3.00;1.90;;;8.70;96.70;;;;;;4982714;28;20100;-74
2021/04/16 02:47:31;;;;;;;2.38;2.05;;;8.70;96.70;;;;;;5002747;28;20061;-74
2021/04/16 02:50:00;;;;;;;2.70;1.85;;;8.60;96.70;;;;;;5000219;28;20133;-73
2021/04/16 02:52:28;;;;;;;3.50;1.88;;;8.50;96.70;;;;;;4983717;28;20072;-73
2021/04/16 02:54:56;;;;;;;3.53;1.60;;;8.40;96.70;;;;;;5002070;28;20037;-73
2021/04/16 02:57:26;;;;;;;3.78;1.48;;;8.40;96.70;;;;;;4992817;28;20041;-73
2021/04/16 02:59:54;;;;;;;2.40;1.42;;;8.40;96.70;;;;;;4984820;28;20516;-74
2021/04/16 03:02:22;;;;;;;3.10;1.45;;;8.30;96.70;;;;;;4992406;28;20480;-74
2021/04/16 03:04:50;;;;;;;2.28;1.48;;;8.30;96.70;;;;;;4967133;28;20052;-74
2021/04/16 03:07:19;;;;;;;1.58;1.27;;;8.30;96.70;;;;;;4978514;28;20054;-74
2021/04/16 03:09:47;;;;;;;2.53;1.30;;;8.30;96.70;;;;;;4999581;28;20034;-74
2021/04/16 03:12:15;;;;;;;3.78;1.83;;;8.30;96.70;;;;;;4982500;28;20041;-74
2021/04/16 03:14:43;;;;;;;2.55;1.15;;;8.20;96.70;;;;;;4977783;28;20058;-74
2021/04/16 03:17:12;;;;;;;2.00;1.10;;;8.20;96.70;;;;;;4968713;28;20057;-74
2021/04/16 03:19:41;;;;;;;2.80;1.40;;;8.20;96.70;;;;;;4993830;28;20046;-74
2021/04/16 03:22:09;;;;;;;1.92;1.30;;;8.10;96.70;;;;;;4979104;28;20077;-74
2021/04/16 03:24:38;;;;;;;2.33;1.42;;;8.10;96.70;;;;;;4998148;28;20578;-74
2021/04/16 03:27:07;;;;;;;2.97;1.40;;;8.10;96.70;;;;;;4997269;28;20046;-74
2021/04/16 03:29:35;;;;;;;1.52;1.05;;;8.10;96.70;;;;;;4997809;28;20042;-75
2021/04/16 03:32:03;;;;;;;3.42;1.33;;;8.10;96.70;;;;;;4975822;28;20046;-74
2021/04/16 03:34:33;;;;;;;3.78;1.70;;;8.10;96.70;;;;;;4973424;28;20054;-74
2021/04/16 03:37:02;;;;;;;2.60;1.33;;;8.10;96.70;;;;;;4993469;28;20046;-75
2021/04/16 03:39:30;;;;;;;1.77;1.17;;;8.10;96.70;;;;;;4962699;28;20136;-74
2021/04/16 03:41:59;;;;;;;2.97;1.40;;;8.10;96.70;;;;;;4991983;28;20041;-74
2021/04/16 03:44:27;;;;;;;2.33;1.38;;;8.10;96.70;;;;;;4977856;28;20057;-75
2021/04/16 03:46:55;;;;;;;3.40;1.45;;;8.00;96.70;;;;;;4980862;28;20737;-74
2021/04/16 03:49:23;;;;;;;2.00;1.05;;;7.90;96.70;;;;;;4994996;28;20061;-74
2021/04/16 03:51:54;;;;;;;2.45;1.55;;;7.90;96.70;;;;;;4999365;28;20058;-74
2021/04/16 03:54:23;;;;;;;2.38;1.40;;;7.90;96.70;;;;;;4976582;28;20046;-74
2021/04/16 03:56:52;;;;;;;2.97;1.38;;;7.90;96.70;;;;;;4966790;28;20065;-74
2021/04/16 03:59:23;;;;;;;3.28;1.50;;;7.80;96.70;;;;;;4983305;28;20077;-74
2021/04/16 04:01:51;;;;;;;3.35;1.27;;;7.70;96.70;;;;;;5001622;28;20038;-74
2021/04/16 04:04:21;;;;;;;4.28;1.50;;;7.60;96.70;;;;;;4997947;28;20049;-74
2021/04/16 04:06:50;;;;;;;2.22;1.30;;;7.60;96.70;;;;;;4981805;28;20065;-75
2021/04/16 04:09:18;;;;;;;2.22;1.55;;;7.70;96.70;;;;;;4976050;28;20046;-75
2021/04/16 04:11:51;;;;;;;5.00;1.50;;;7.70;96.70;;;;;;4979155;28;20516;-74
2021/04/16 04:14:20;;;;;;;3.75;1.60;;;7.70;96.70;;;;;;4999631;28;20040;-75
2021/04/16 04:16:51;;;;;;;5.30;1.77;;;7.60;96.70;;;;;;4978456;28;20085;-74
2021/04/16 04:19:20;;;;;;;1.45;1.13;;;7.60;96.70;;;;;;4983062;28;20068;-75
2021/04/16 04:21:49;;;;;;;2.55;1.45;;;7.70;96.70;;;;;;4980139;28;20065;-74
2021/04/16 04:24:17;;;;;;;3.83;1.52;;;7.70;96.70;;;;;;4974535;28;20058;-74
2021/04/16 04:26:46;;;;;;;2.45;1.50;;;7.70;96.70;;;;;;4967199;28;20046;-74
2021/04/16 04:29:16;;;;;;;3.50;1.55;;;7.60;96.70;;;;;;4978222;28;20053;-75
2021/04/16 04:31:48;;;;;;;2.55;1.50;;;7.60;96.70;;;;;;4981105;28;20153;-74
2021/04/16 04:34:19;;;;;;;3.50;1.30;;;7.60;96.70;;;;;;4983525;28;20484;-74
2021/04/16 04:36:48;;;;;;;2.67;1.63;;;7.60;96.70;;;;;;4973732;28;20046;-75
2021/04/16 04:39:16;;;;;;;2.47;1.50;;;7.50;96.70;;;;;;4981277;28;20508;-74
2021/04/16 04:41:45;;;;;;;5.80;1.38;;;7.50;96.70;;;;;;4991288;28;20124;-74
2021/04/16 04:44:13;;;;;;;3.63;1.50;;;7.60;96.70;;;;;;4978368;28;20056;-75
2021/04/16 04:46:42;;;;;;;1.95;1.30;;;7.80;96.70;;;;;;4977672;28;20129;-75
2021/04/16 04:49:11;;;;;;;3.30;1.30;;;7.90;96.70;;;;;;4967571;28;20152;-74
2021/04/16 04:51:40;;;;;;;2.65;1.15;;;8.00;96.70;;;;;;4993499;28;20038;-75
2021/04/16 04:54:09;;;;;;;6.57;1.77;;;8.00;96.70;;;;;;4993133;28;20507;-75
2021/04/16 04:56:38;;;;;;;4.30;1.80;;;7.90;96.70;;;;;;4968229;28;20342;-75
2021/04/16 04:59:06;;;;;;;2.97;1.75;;;7.90;96.70;;;;;;4995798;28;20140;-75
2021/04/16 05:01:34;;;;;;;2.45;1.42;;;8.00;96.70;;;;;;4983164;28;20854;-75
2021/04/16 05:04:05;;;;;;;2.03;1.48;;;8.10;96.70;;;;;;4980695;28;20073;-73
2021/04/16 05:06:35;;;;;;;3.50;1.38;;;8.00;96.70;;;;;;4983430;28;20049;-74
2021/04/16 05:09:03;;;;;;;2.10;1.70;;;8.30;96.70;;;;;;4991900;28;20396;-75
2021/04/16 05:11:31;;;;;;;3.58;1.70;;;8.40;96.70;;;;;;4962608;28;20536;-75
2021/04/16 05:13:59;;;;;;;4.03;1.27;;;8.30;96.70;;;;;;4999241;28;20435;-74
2021/04/16 05:16:27;;;;;;;3.38;1.50;;;8.20;96.70;;;;;;4983866;28;20044;-74
2021/04/16 05:18:57;;;;;;;3.03;1.60;;;8.20;96.70;;;;;;4977111;28;20104;-75
2021/04/16 05:21:27;;;;;;;2.47;1.20;;;8.30;96.70;;;;;;4990862;28;20474;-74
2021/04/16 05:23:57;;;;;;;3.30;1.83;;;8.30;96.70;;;;;;4982606;28;20139;-75
2021/04/16 05:26:25;;;;;;;3.58;1.50;;;8.50;96.70;;;;;;4996114;28;20045;-75
2021/04/16 05:28:54;;;;;;;3.90;1.55;;;8.60;96.70;;;;;;4977720;28;20077;-74
2021/04/16 05:31:22;;;;;;;2.60;1.70;;;8.70;96.40;;;;;;4977988;28;20042;-74
2021/04/16 05:33:50;;;;;;;3.55;1.67;;;8.60;96.50;;;;;;4984169;28;20049;-74
2021/04/16 05:36:18;;;;;;;5.80;2.10;;;8.80;96.30;;;;;;4976581;28;20389;-75
2021/04/16 05:38:47;;;;;;;5.35;1.83;;;8.90;95.70;;;;;;4967463;28;20065;-74
2021/04/16 05:41:16;;;;;;;4.57;2.60;;;8.80;96.20;;;;;;4983283;28;20472;-75
2021/04/16 05:43:44;;;;;;;4.93;2.50;;;8.90;96.30;;;;;;4977930;28;20424;-74
2021/04/16 05:46:12;;;;;;;4.45;2.30;;;9.00;96.10;;;;;;4981769;28;20060;-74
2021/04/16 05:48:41;;;;;;;5.03;2.40;;;9.00;95.50;;;;;;4978267;28;20153;-74
2021/04/16 05:51:10;;;;;;;8.65;2.53;;;9.10;95.60;;;;;;4993955;28;20042;-74
2021/04/16 05:53:38;;;;;;;6.35;2.20;;;9.20;95.60;;;;;;4982312;28;20057;-75
2021/04/16 05:56:07;;;;;;;3.25;2.15;;;9.30;95.60;;;;;;4985847;28;20034;-75
2021/04/16 05:58:36;;;;;;;4.40;2.35;;;9.30;94.90;;;;;;4992651;28;20093;-74
2021/04/16 06:01:04;;;;;;;5.03;2.28;;;9.40;94.50;;;;;;4971654;28;20046;-74
2021/04/16 06:03:32;;;;;;;5.70;2.42;;;9.40;94.20;;;;;;4986686;28;20385;-75
2021/04/16 06:06:01;;;;;;;6.70;2.10;;;9.50;93.90;;;;;;4963460;28;20046;-75
2021/04/16 06:08:30;;;;;;;5.03;2.05;;;9.60;93.30;;;;;;4982477;28;20050;-75
2021/04/16 06:10:59;;;;;;;4.65;2.30;;;9.70;93.40;;;;;;4985795;28;20251;-74
2021/04/16 06:13:29;;;;;;;3.70;2.55;;;9.80;93.00;;;;;;5000982;28;20046;-74
2021/04/16 06:16:01;;;;;;;6.32;2.88;;;9.80;93.00;;;;;;4965414;28;20116;-75
2021/04/16 06:18:29;;;;;;;3.35;2.35;;;9.70;93.30;;;;;;4995598;28;20068;-75
2021/04/16 06:20:58;;;;;;;5.68;2.70;;;9.70;94.00;;;;;;4977800;28;20042;-74
2021/04/16 06:23:26;;;;;;;6.82;3.22;;;9.70;93.60;;;;;;5000647;28;20044;-74
2021/04/16 06:25:55;;;;;;;5.75;3.70;;;9.80;93.80;;;;;;4984552;28;20044;-75
2021/04/16 06:28:24;;;;;;;7.53;4.20;;;9.90;93.80;;;;;;5000371;28;20092;-74
2021/04/16 06:30:54;;;;;;;13.90;4.53;;;10.00;93.30;;;;;;4984710;28;20869;-74
2021/04/16 06:33:26;;;;;;;9.82;4.35;;;10.10;92.60;;;;;;4985274;28;20587;-74
2021/04/16 06:35:59;;;;;;;8.98;4.65;;;10.10;91.30;;;;;;4967434;28;20061;-75
2021/04/16 06:38:32;;;;;;;7.28;4.88;;;10.20;91.30;;;;;;5000690;28;20053;-74
2021/04/16 06:41:01;;;;;;;8.13;5.10;;;10.20;90.60;;;;;;4985160;28;20062;-75
2021/04/16 06:43:37;;;;;;;7.90;4.85;;;10.30;91.00;;;;;;4984038;28;20504;-74
2021/04/16 06:46:09;;;;;;;13.77;5.67;;;10.40;90.50;;;;;;4998575;28;20057;-75
2021/04/16 06:48:40;;;;;;;7.57;5.07;;;10.50;90.20;;;;;;4999976;28;20046;-74
2021/04/16 06:51:10;;;;;;;7.22;4.93;;;10.60;90.50;;;;;;4977287;28;20053;-74
2021/04/16 06:53:48;;;;;;;7.47;4.40;;;10.60;90.10;;;;;;4997388;28;20113;-74
2021/04/16 06:56:26;;;;;;;8.27;5.03;;;10.70;90.20;;;;;;5002827;28;20356;-75
2021/04/16 06:59:00;;;;;;;7.10;3.78;;;10.80;90.60;;;;;;4984288;28;20045;-75
2021/04/16 07:01:34;;;;;;;6.10;3.60;;;10.80;89.60;;;;;;4981897;28;20042;-74
2021/04/16 07:04:17;;;;;;;7.10;3.85;;;10.90;89.90;;;;;;4981548;28;20124;-75
2021/04/16 07:06:46;;;;;;;6.90;3.08;;;11.00;88.70;;;;;;4990709;28;20047;-74
2021/04/16 07:09:17;;;;;;;7.43;3.50;;;11.10;89.30;;;;;;4980225;28;20496;-73
2021/04/16 07:11:50;;;;;;;5.68;3.85;;;11.10;89.20;;;;;;4979124;28;20267;-74
2021/04/16 07:14:26;;;;;;;5.57;2.65;;;11.20;89.50;;;;;;4965900;28;20045;-73
2021/04/16 07:16:55;;;;;;;2.30;2.10;;;11.30;88.70;;;;;;4989592;28;20041;-74
2021/04/16 07:19:28;;;;;;;2.40;1.27;;;11.30;87.90;;;;;;4994239;28;20038;-74
2021/04/16 07:21:58;;;;;;;1.95;0.90;;;11.40;85.30;;;;;;4980831;28;20056;-74
2021/04/16 07:24:26;;;;;;;1.55;0.93;;;11.50;83.30;;;;;;4980675;28;20041;-73
2021/04/16 07:26:58;;;;;;;1.83;1.00;;;11.50;81.80;;;;;;4980454;28;20088;-74
2021/04/16 07:29:41;;;;;;;2.95;1.23;;;11.50;81.00;;;;;;4979355;28;20148;-74
2021/04/16 07:32:18;;;;;;;1.80;0.88;;;11.60;81.70;;;;;;4982258;28;20064;-74
2021/04/16 07:34:48;;;;;;;3.28;1.42;;;11.70;80.40;;;;;;4976119;28;20491;-74
2021/04/16 07:37:19;;;;;;;2.72;0.80;;;11.80;81.30;;;;;;4983306;28;20127;-74
2021/04/16 07:39:59;;;;;;;2.92;0.93;;;11.80;81.20;;;;;;4973954;28;20164;-74
2021/04/16 07:42:38;;;;;;;3.20;1.05;;;11.80;80.90;;;;;;4974578;28;20052;-74
2021/04/16 07:45:38;;;;;;;3.22;0.70;;;11.90;80.40;;;;;;4963760;28;20042;-74
2021/04/16 07:48:34;;;;;;;6.70;1.33;;;12.00;81.10;;;;;;4955735;28;20137;-74
2021/04/16 07:51:10;;;;;;;1.63;0.80;;;12.10;80.20;;;;;;4946400;28;20583;-74
2021/04/16 07:53:42;;;;;;;2.57;1.00;;;12.20;80.30;;;;;;4977578;28;20067;-73
2021/04/16 07:56:22;;;;;;;1.92;1.10;;;12.20;79.70;;;;;;4993780;28;20057;-73
2021/04/16 07:59:04;;;;;;;2.28;0.90;;;12.30;79.90;;;;;;4992369;28;20049;-74
2021/04/16 08:01:34;;;;;;;2.88;1.10;;;12.30;80.00;;;;;;4980802;28;20487;-73
2021/04/16 08:04:05;;;;;;;1.77;0.82;;;12.40;80.00;;;;;;4983224;28;20369;-74
2021/04/16 08:06:37;;;;;;;3.17;0.90;;;12.50;79.40;;;;;;4994680;28;20045;-74
2021/04/16 08:09:10;;;;;;;1.88;1.08;;;12.60;79.70;;;;;;4976113;28;20497;-73
2021/04/16 08:11:39;;;;;;;1.63;1.02;;;12.70;79.20;;;;;;4980189;28;20500;-77
2021/04/16 08:14:27;;;;;;;2.75;0.85;;;12.70;79.70;;;;;;4983103;28;20066;-73
2021/04/16 08:16:58;;;;;;;1.52;0.70;;;12.70;78.90;;;;;;4997714;28;20041;-73
2021/04/16 08:19:30;;;;;;;2.58;1.00;;;12.80;77.70;;;;;;4966683;28;20053;-73
2021/04/16 08:22:03;;;;;;;1.58;0.73;;;12.90;78.20;;;;;;4995742;28;20085;-73
2021/04/16 08:24:37;;;;;;;1.80;0.60;;;13.00;77.70;;;;;;4979759;28;20152;-73
2021/04/16 08:27:21;;;;;;;3.75;1.08;;;13.00;78.10;;;;;;4978412;28;20342;-73
2021/04/16 08:29:53;;;;;;;2.30;0.85;;;13.10;78.30;;;;;;4957347;28;20056;-73
2021/04/16 08:32:30;;;;;;;2.15;0.70;;;13.20;78.00;;;;;;4978280;28;20037;-74
2021/04/16 08:35:02;;;;;;;2.20;0.75;;;13.20;77.00;;;;;;4975956;28;20034;-74
2021/04/16 08:37:38;;;;;;;1.83;0.85;;;13.30;77.20;;;;;;4995788;28;20046;-74
2021/04/16 08:40:11;;;;;;;2.22;0.80;;;13.40;77.00;;;;;;4979708;28;20058;-73
2021/04/16 08:42:40;;;;;;;1.33;0.93;;;13.40;76.60;;;;;;4982618;28;20037;-73
2021/04/16 08:45:12;;;;;;;1.42;0.90;;;13.40;75.90;;;;;;4977671;28;20128;-73
2021/04/16 08:47:50;;;;;;;1.65;0.80;;;13.40;75.90;;;;;;4978499;28;20132;-74
2021/04/16 08:50:22;;;;;;;1.90;0.80;;;13.60;75.40;;;;;;4980582;28;20042;-73
2021/04/16 08:52:54;;;;;;;2.08;0.88;;;13.70;75.70;;;;;;4977016;28;21263;-73
2021/04/16 08:55:29;;;;;;;2.83;0.90;;;13.70;75.30;;;;;;4974167;28;20203;-73
2021/04/16 08:58:01;;;;;;;3.30;0.75;;;13.90;75.30;;;;;;4964466;28;20496;-73
2021/04/16 09:00:34;;;;;;;16.23;1.40;;;14.00;73.70;;;;;;4975006;28;20053;-73
2021/04/16 09:03:04;;;;;;;1.98;0.95;;;14.10;74.20;;;;;;4983589;28;20053;-73
2021/04/16 09:05:35;;;;;;;1.38;0.60;;;14.20;74.90;;;;;;4999695;28;20052;-73
2021/04/16 09:08:24;;;;;;;1.48;0.65;;;14.30;73.10;;;;;;4979924;28;20065;-73
2021/04/16 09:10:56;;;;;;;4.60;1.00;;;14.30;73.90;;;;;;4972925;28;20045;-74
2021/04/16 09:13:58;;;;;;;2.00;1.10;;;14.40;73.60;;;;;;4978470;28;20058;-74
2021/04/16 09:16:49;;;;;;;2.22;1.40;;;14.60;73.40;;;;;;4980408;28;20049;-75
2021/04/16 09:19:55;;;;;;;2.05;0.70;;;14.60;72.50;;;;;;4976544;28;20046;-75
2021/04/16 09:22:36;;;;;;;1.63;0.90;;;14.60;71.90;;;;;;4979296;28;20500;-74
2021/04/16 09:25:26;;;;;;;4.07;0.73;;;14.70;72.50;;;;;;4979657;28;20042;-74
2021/04/16 09:27:54;;;;;;;3.22;0.68;;;14.70;73.10;;;;;;4999171;28;20414;-74
2021/04/16 09:30:31;;;;;;;1.10;0.60;;;14.70;72.40;;;;;;5004011;28;20042;-74
2021/04/16 09:33:17;;;;;;;2.05;0.50;;;14.80;72.00;;;;;;4999420;28;20507;-74
2021/04/16 09:35:57;;;;;;;3.67;0.90;;;14.80;72.40;;;;;;4970033;28;20077;-74
2021/04/16 09:38:57;;;;;;;1.45;0.88;;;14.80;72.50;;;;;;4978273;28;20046;-75
2021/04/16 09:41:35;;;;;;;1.52;0.70;;;15.00;71.20;;;;;;4985009;28;20094;-76
2021/04/16 09:44:44;;;;;;;1.90;0.70;;;15.10;71.30;;;;;;4993168;28;20123;-75
2021/04/16 09:47:48;;;;;;;1.55;0.80;;;15.00;71.90;;;;;;4964022;28;20450;-75
2021/04/16 09:50:33;;;;;;;1.98;0.80;;;15.20;71.70;;;;;;4988893;28;20046;-75
2021/04/16 09:53:25;;;;;;;4.07;0.90;;;15.30;71.60;;;;;;4995309;28;20527;-74
2021/04/16 09:56:12;;;;;;;3.95;0.98;;;15.40;71.40;;;;;;4973760;28;20045;-74
2021/04/16 09:59:00;;;;;;;1.80;0.63;;;15.50;70.50;;;;;;4981978;28;20473;-74
2021/04/16 10:01:29;;;;;;;1.27;0.70;;;15.60;71.10;;;;;;4997432;28;20053;-75
2021/04/16 10:03:59;;;;;;;2.95;1.08;;;15.40;73.50;;;;;;4987584;28;20041;-75
2021/04/16 10:06:40;;;;;;;1.88;1.02;;;15.40;71.40;;;;;;4982491;28;20144;-75
2021/04/16 10:09:20;;;;;;;2.33;0.75;;;15.40;71.10;;;;;;4983824;28;20511;-75
2021/04/16 10:11:51;;;;;;;1.98;0.85;;;15.60;69.70;;;;;;4977047;28;20094;-75
2021/04/16 10:14:27;;;;;;;1.33;0.80;;;15.70;72.90;;;;;;4982724;28;20046;-75
2021/04/16 10:16:57;;;;;;;2.33;0.87;;;15.90;70.10;;;;;;4983614;28;20050;-75
2021/04/16 10:19:28;;;;;;;1.00;0.52;;;16.00;70.20;;;;;;4981686;28;20044;-75
2021/04/16 10:21:56;;;;;;;5.82;1.00;;;15.90;70.40;;;;;;4982196;28;20046;-75
2021/04/16 11:16:00;;;;;;;1.10;0.55;;;17.50;70.50;;;;;;4995633;28;20060;-75
2021/04/16 12:39:46;;;;;;;1.48;0.60;;;18.90;65.80;;;;;;4983876;28;20463;-74
2021/04/16 12:42:14;;;;;;;1.33;0.73;;;18.70;65.20;;;;;;4985866;28;20618;-74
2021/04/16 12:44:47;;;;;;;1.45;0.63;;;18.60;65.50;;;;;;4961864;28;20050;-73
2021/04/16 12:47:20;;;;;;;1.60;0.70;;;18.60;65.50;;;;;;4988482;28;20061;-73
2021/04/16 12:49:48;;;;;;;1.73;0.50;;;18.60;64.60;;;;;;4952343;28;20477;-74
2021/04/16 12:52:19;;;;;;;1.95;0.88;;;18.80;65.20;;;;;;4964814;28;20034;-74
2021/04/16 12:54:49;;;;;;;1.13;0.60;;;18.80;65.10;;;;;;4964158;28;20527;-74
2021/04/16 12:57:19;;;;;;;3.30;0.85;;;18.80;65.60;;;;;;4985919;28;20045;-74
2021/04/16 12:59:49;;;;;;;1.58;0.65;;;18.60;64.90;;;;;;4969709;28;20057;-75
2021/04/16 13:02:23;;;;;;;3.67;0.60;;;19.00;64.90;;;;;;4961282;28;20205;-75
2021/04/16 13:04:52;;;;;;;0.60;0.40;;;19.30;64.90;;;;;;4964494;28;20654;-74
2021/04/16 13:07:20;;;;;;;0.88;0.50;;;19.20;64.80;;;;;;4961285;28;20040;-74
2021/04/16 13:09:48;;;;;;;2.95;0.65;;;18.90;63.50;;;;;;4984252;28;20050;-75
2021/04/16 13:12:16;;;;;;;1.98;0.60;;;18.90;64.20;;;;;;4952581;28;20038;-74
2021/04/16 13:14:44;;;;;;;1.40;0.50;;;19.10;64.30;;;;;;4962595;28;20042;-73
2021/04/16 13:17:15;;;;;;;1.58;0.60;;;19.20;65.40;;;;;;4957516;28;20049;-73
2021/04/16 13:19:43;;;;;;;2.65;1.05;;;19.30;64.60;;;;;;4963807;28;20480;-73
2021/04/16 13:22:14;;;;;;;1.67;0.60;;;19.50;64.00;;;;;;4981296;28;20035;-73
2021/04/16 13:24:45;;;;;;;1.35;0.60;;;19.40;63.90;;;;;;4982126;28;20424;-73
2021/04/16 13:27:15;;;;;;;1.45;0.60;;;19.30;64.30;;;;;;4964353;28;20041;-74
2021/04/16 13:29:43;;;;;;;1.45;0.70;;;19.50;65.00;;;;;;4960950;28;20394;-73
2021/04/16 13:32:14;;;;;;;2.15;0.75;;;19.50;64.60;;;;;;4975882;28;20034;-73
2021/04/16 13:34:44;;;;;;;1.63;0.60;;;19.70;63.50;;;;;;4966101;28;20045;-74
2021/04/16 13:37:14;;;;;;;1.33;0.50;;;20.00;63.80;;;;;;4947697;28;20404;-74
2021/04/16 13:39:43;;;;;;;2.03;0.90;;;20.40;63.30;;;;;;4961740;28;20054;-74
2021/04/16 13:42:11;;;;;;;1.35;0.60;;;20.60;62.50;;;;;;4947060;28;20155;-74
2021/04/16 13:44:39;;;;;;;2.33;0.90;;;20.90;63.40;;;;;;4952130;28;20057;-74
2021/04/16 13:47:09;;;;;;;1.15;0.70;;;20.40;64.30;;;;;;4966965;28;20038;-73
2021/04/16 13:49:39;;;;;;;2.15;1.02;;;19.90;63.50;;;;;;4984852;28;20057;-74
2021/04/16 13:52:08;;;;;;;1.25;0.70;;;19.70;63.50;;;;;;4982917;28;20085;-73
2021/04/16 13:54:37;;;;;;;2.10;1.10;;;19.70;64.20;;;;;;4984627;28;20038;-74
2021/04/16 13:57:05;;;;;;;2.90;1.10;;;19.60;64.60;;;;;;4985307;28;20046;-73
2021/04/16 13:59:33;;;;;;;2.38;1.20;;;19.20;65.10;;;;;;4967601;28;20048;-73
2021/04/16 14:02:02;;;;;;;3.22;1.17;;;19.00;65.90;;;;;;4967734;28;20046;-73
2021/04/16 14:04:35;;;;;;;1.30;0.80;;;18.80;65.40;;;;;;4947601;28;20794;-73
2021/04/16 14:07:06;;;;;;;2.47;1.00;;;18.80;65.40;;;;;;4978804;28;20047;-74
2021/04/16 14:09:35;;;;;;;3.67;0.82;;;18.70;66.30;;;;;;4962341;28;20093;-74
2021/04/16 14:12:06;;;;;;;1.45;0.70;;;18.70;67.00;;;;;;4978934;28;20424;-74
2021/04/16 14:14:34;;;;;;;2.95;0.80;;;18.70;66.60;;;;;;4984594;28;20042;-74
2021/04/16 14:17:05;;;;;;;4.15;0.70;;;18.80;65.70;;;;;;4981889;28;20054;-73
2021/04/16 14:19:42;;;;;;;1.02;0.60;;;19.10;65.20;;;;;;4950349;28;20602;-74
2021/04/16 14:22:13;;;;;;;1.27;0.65;;;18.90;64.70;;;;;;4982147;28;20081;-73
2021/04/16 14:24:41;;;;;;;1.45;0.70;;;18.60;65.20;;;;;;4964546;28;20038;-73
2021/04/16 14:27:10;;;;;;;2.03;0.82;;;18.50;65.60;;;;;;4982853;28;20041;-73
2021/04/16 14:29:38;;;;;;;4.63;1.00;;;18.50;66.60;;;;;;4979401;28;20189;-73
2021/04/16 14:32:10;;;;;;;3.00;0.90;;;18.50;67.00;;;;;;4948706;28;20051;-73
2021/04/16 14:34:39;;;;;;;3.13;0.88;;;18.30;67.30;;;;;;4949079;28;20069;-73
2021/04/16 14:37:07;;;;;;;4.13;0.80;;;18.00;67.00;;;;;;4966248;28;20050;-74
2021/04/16 14:39:36;;;;;;;5.50;2.30;;;17.80;66.70;;;;;;4969190;28;20057;-73
2021/04/16 14:42:06;;;;;;;2.25;1.20;;;17.80;67.80;;;;;;4985115;28;20397;-73
2021/04/16 14:44:33;;;;;;;2.00;1.23;;;17.70;68.60;;;;;;4998067;28;20120;-73
2021/04/16 14:47:02;;;;;;;3.15;1.10;;;17.60;68.30;;;;;;4981926;28;20172;-73
2021/04/16 14:49:31;;;;;;;2.50;1.35;;;17.60;67.70;;;;;;4999157;28;20575;-73
2021/04/16 14:52:03;;;;;;;1.83;1.25;;;17.60;68.30;;;;;;4969657;28;20054;-74
2021/04/16 14:54:33;;;;;;;3.10;1.52;;;17.50;67.60;;;;;;4984153;28;20582;-73
2021/04/16 14:57:07;;;;;;;3.03;1.25;;;17.50;67.40;;;;;;4978184;28;20582;-73
2021/04/16 14:59:39;;;;;;;4.55;1.42;;;17.60;67.40;;;;;;4999054;28;20045;-73
2021/04/16 15:02:07;;;;;;;2.30;1.00;;;17.50;68.30;;;;;;4983511;28;20165;-74
2021/04/16 15:04:35;;;;;;;4.32;1.90;;;17.50;67.30;;;;;;5000269;28;20047;-74
2021/04/16 15:07:06;;;;;;;2.88;1.20;;;17.50;67.70;;;;;;4979911;28;20046;-73
2021/04/16 15:09:41;;;;;;;2.15;1.50;;;17.50;67.20;;;;;;4998118;28;20057;-73
2021/04/16 15:12:14;;;;;;;4.43;1.75;;;17.50;67.30;;;;;;4981915;28;20060;-74
2021/04/16 15:14:42;;;;;;;3.38;1.25;;;17.50;67.80;;;;;;5005474;28;20044;-74
2021/04/16 15:17:10;;;;;;;3.40;1.55;;;17.50;67.90;;;;;;4976770;28;20145;-73
2021/04/16 15:19:41;;;;;;;4.95;1.38;;;17.50;68.10;;;;;;4979253;28;20036;-73
2021/04/16 15:22:12;;;;;;;2.08;1.23;;;17.60;68.10;;;;;;4981711;28;20144;-74
2021/04/16 15:24:41;;;;;;;2.70;1.55;;;17.60;68.60;;;;;;4969591;28;20538;-73
2021/04/16 15:27:13;;;;;;;2.75;1.10;;;17.50;68.70;;;;;;4999297;28;20057;-74